Terminal Aerodrome Forecast
Issued by NWS Sterling, VA

Current Version | Previous Version | Graphics & Text | Print | Product List | Glossary Off
Versions: 1 2 3 4 5 6 7 8 9 10 11 12 13 14 15 16 17 18 19 20 21

000
FTUS41 KLWX 230500
TAFDCA
TAF
KDCA 230532Z 2306/2406 33015G27KT P6SM FEW090 SCT250
     FM231300 31019G34KT P6SM FEW120
     FM232200 32014G25KT P6SM SKC
     FM240400 31011G18KT P6SM SKC=

USA.gov is the U.S. government's official web portal to all federal, state and local government web resources and services.